Time;durP1;ratioP1;P1;durP2;ratioP2;P2;SDS_P1;SDS_P2;PMS_P1;PMS_P2;Temp;Humidity;BMP_temperature;BMP_pressure;BME280_temperature;BME280_humidity;BME280_pressure;Samples;Min_cycle;Max_cycle;Signal;HPM_P1;HPM_P2
2022/12/21 00:00:01;;;;;;;67.47;25.83;;;4.30;61.90;;;;;;5036049;28;20037;-71
2022/12/21 00:02:27;;;;;;;59.40;24.98;;;4.30;61.80;;;;;;5053707;28;20071;-71
2022/12/21 00:04:55;;;;;;;68.32;26.75;;;4.40;61.90;;;;;;5053424;28;20089;-71
2022/12/21 00:07:24;;;;;;;58.42;25.45;;;4.40;61.90;;;;;;5018984;28;20486;-71
2022/12/21 00:09:55;;;;;;;68.28;27.45;;;4.50;62.00;;;;;;5016125;28;20033;-71
2022/12/21 00:12:24;;;;;;;67.07;27.30;;;4.50;62.00;;;;;;5016164;28;20076;-71
2022/12/21 00:14:51;;;;;;;70.65;27.23;;;4.60;61.90;;;;;;5033532;28;20071;-70
2022/12/21 00:17:16;;;;;;;67.30;27.17;;;4.60;61.80;;;;;;5033262;28;20042;-70
2022/12/21 00:19:45;;;;;;;68.10;26.73;;;4.60;61.60;;;;;;5033776;28;20040;-71
2022/12/21 00:22:14;;;;;;;57.72;24.48;;;4.70;61.60;;;;;;5033479;28;20550;-70
2022/12/21 00:24:43;;;;;;;70.47;27.48;;;4.70;61.40;;;;;;5015954;28;20044;-70
2022/12/21 00:27:09;;;;;;;67.78;29.10;;;4.80;61.40;;;;;;5033841;28;20069;-70
2022/12/21 00:29:35;;;;;;;66.28;28.15;;;4.80;61.30;;;;;;5015884;28;20566;-72
2022/12/21 00:32:03;;;;;;;67.88;28.08;;;4.80;61.20;;;;;;5034750;28;20134;-71
2022/12/21 00:34:31;;;;;;;68.75;26.83;;;4.80;61.10;;;;;;5025509;28;20129;-70
2022/12/21 00:37:01;;;;;;;72.55;29.42;;;4.80;61.00;;;;;;5033202;28;20493;-71
2022/12/21 00:39:29;;;;;;;63.45;24.33;;;4.80;60.90;;;;;;5033823;28;20033;-71
2022/12/21 00:42:00;;;;;;;62.78;25.65;;;4.90;61.00;;;;;;5033473;28;20034;-71
2022/12/21 00:44:29;;;;;;;67.95;28.05;;;4.90;60.90;;;;;;5033262;28;20048;-71
2022/12/21 00:46:55;;;;;;;74.60;28.33;;;4.90;60.80;;;;;;5015651;28;20033;-71
2022/12/21 00:49:24;;;;;;;70.03;27.92;;;4.90;60.80;;;;;;5015672;28;20088;-71
2022/12/21 00:51:52;;;;;;;67.85;28.23;;;4.80;61.50;;;;;;5032966;28;20469;-71
2022/12/21 00:54:18;;;;;;;78.05;30.65;;;4.80;60.70;;;;;;5033339;28;20091;-71
2022/12/21 00:56:47;;;;;;;68.70;28.02;;;4.80;60.70;;;;;;5015575;28;20034;-71
2022/12/21 00:59:15;;;;;;;69.18;29.10;;;4.80;60.80;;;;;;5033217;28;20120;-71
2022/12/21 01:01:43;;;;;;;69.03;28.73;;;4.80;60.80;;;;;;5015418;28;20045;-71
2022/12/21 01:04:11;;;;;;;64.57;26.77;;;4.80;60.90;;;;;;5032559;28;20068;-71
2022/12/21 01:06:40;;;;;;;63.75;26.17;;;4.80;60.90;;;;;;5033467;28;20030;-71
2022/12/21 01:09:12;;;;;;;58.53;25.23;;;4.80;60.80;;;;;;5033055;28;20041;-71
2022/12/21 01:11:38;;;;;;;64.95;25.92;;;4.80;60.80;;;;;;5032771;28;20441;-71
2022/12/21 01:14:04;;;;;;;62.28;24.35;;;4.80;60.80;;;;;;5015356;28;20091;-71
2022/12/21 01:16:31;;;;;;;71.32;28.67;;;4.80;60.80;;;;;;5033308;28;20116;-71
2022/12/21 01:19:02;;;;;;;59.70;24.38;;;4.80;60.80;;;;;;5033042;28;20033;-71
2022/12/21 01:21:30;;;;;;;82.90;30.40;;;4.90;60.80;;;;;;5033080;28;20042;-71
2022/12/21 01:23:59;;;;;;;82.50;32.47;;;4.90;60.70;;;;;;5015256;28;20041;-71
2022/12/21 01:26:28;;;;;;;79.22;31.10;;;4.90;60.70;;;;;;5015059;28;20029;-71
2022/12/21 01:28:57;;;;;;;71.03;28.27;;;4.90;60.70;;;;;;5034445;28;20088;-71
2022/12/21 01:31:23;;;;;;;61.97;24.75;;;4.90;60.50;;;;;;5019043;28;20033;-71
2022/12/21 01:33:54;;;;;;;61.35;24.90;;;4.90;60.50;;;;;;5036612;28;20053;-71
2022/12/21 01:36:20;;;;;;;64.28;26.23;;;4.90;60.40;;;;;;5036370;28;20034;-71
2022/12/21 01:38:49;;;;;;;64.07;25.42;;;5.00;60.50;;;;;;5036630;28;20087;-70
2022/12/21 01:41:27;;;;;;;57.15;23.75;;;5.00;60.40;;;;;;5018786;28;20037;-70
2022/12/21 01:44:01;;;;;;;56.42;23.00;;;5.00;60.40;;;;;;5018766;28;20068;-70
2022/12/21 01:46:42;;;;;;;54.10;23.08;;;5.00;60.40;;;;;;5019812;28;20397;-70
2022/12/21 01:49:22;;;;;;;57.65;24.42;;;5.10;60.40;;;;;;5034817;28;20052;-70
2022/12/21 01:52:07;;;;;;;59.03;24.50;;;5.10;60.30;;;;;;5036110;28;20542;-70
2022/12/21 01:54:49;;;;;;;51.15;23.83;;;5.10;60.20;;;;;;5036650;28;20033;-70
2022/12/21 01:57:16;;;;;;;60.25;26.25;;;5.20;60.20;;;;;;5036005;28;20037;-70
2022/12/21 01:59:48;;;;;;;59.72;24.95;;;5.20;60.10;;;;;;5036219;28;20038;-70
2022/12/21 02:02:30;;;;;;;55.83;22.95;;;5.20;60.00;;;;;;5035944;28;20492;-70
2022/12/21 02:05:06;;;;;;;63.33;23.63;;;5.20;60.00;;;;;;5036119;28;20049;-70
2022/12/21 02:07:37;;;;;;;61.60;26.35;;;5.20;60.00;;;;;;5035688;28;20037;-70
2022/12/21 02:10:04;;;;;;;65.07;26.08;;;5.20;59.90;;;;;;5035696;28;20030;-70
2022/12/21 02:12:31;;;;;;;64.28;26.10;;;5.20;59.80;;;;;;5018105;28;20469;-70
2022/12/21 02:14:57;;;;;;;64.30;28.08;;;5.20;59.80;;;;;;5035545;28;20092;-70
2022/12/21 02:17:51;;;;;;;65.82;26.85;;;5.20;59.70;;;;;;5017997;28;20421;-70
2022/12/21 02:20:38;;;;;;;60.83;26.23;;;5.10;59.70;;;;;;5018194;28;20033;-70
2022/12/21 02:23:39;;;;;;;58.85;25.20;;;5.10;59.70;;;;;;5035983;28;20041;-70
2022/12/21 02:26:27;;;;;;;58.58;24.73;;;5.10;59.70;;;;;;4935953;29;20118;-70
2022/12/21 02:29:12;;;;;;;64.97;25.33;;;5.10;59.80;;;;;;4935916;29;20480;-70
2022/12/21 02:32:18;;;;;;;64.47;26.50;;;5.10;59.90;;;;;;4936223;29;20040;-70
2022/12/21 02:34:55;;;;;;;60.38;26.17;;;5.10;60.00;;;;;;4935884;29;20046;-70
2022/12/21 02:37:34;;;;;;;60.72;25.95;;;5.10;60.00;;;;;;4935915;29;20040;-71
2022/12/21 02:40:05;;;;;;;62.90;25.58;;;5.10;60.00;;;;;;4935347;29;20107;-71
2022/12/21 02:46:02;;;;;;;62.90;26.23;;;5.10;60.00;;;;;;4936067;29;20341;-70
2022/12/21 02:48:50;;;;;;;70.13;27.83;;;5.10;59.90;;;;;;4936293;28;20047;-70
2022/12/21 02:51:39;;;;;;;69.38;28.05;;;5.10;59.90;;;;;;4935677;29;20459;-70
2022/12/21 02:54:07;;;;;;;68.72;27.63;;;5.10;59.90;;;;;;4935549;29;20040;-70
2022/12/21 02:56:35;;;;;;;60.00;24.33;;;5.10;59.90;;;;;;4935494;29;20044;-70
2022/12/21 02:59:09;;;;;;;56.55;23.73;;;5.10;59.90;;;;;;4941644;28;20071;-71
2022/12/21 03:01:53;;;;;;;;;;;5.10;60.00;;;;;;5035217;28;20509;-70
2022/12/21 03:04:42;;;;;;;53.33;22.75;;;5.10;60.00;;;;;;5034840;28;19920;-71
2022/12/21 03:07:38;;;;;;;55.00;23.30;;;5.10;59.90;;;;;;5034683;28;20092;-69
2022/12/21 03:10:19;;;;;;;55.22;22.67;;;5.20;60.00;;;;;;5034822;28;20061;-70
2022/12/21 03:13:32;;;;;;;53.92;23.80;;;5.20;60.00;;;;;;5035054;28;20029;-70
2022/12/21 03:16:07;;;;;;;59.05;24.60;;;5.20;59.90;;;;;;4992795;28;20039;-70
2022/12/21 03:18:45;;;;;;;60.20;25.48;;;5.20;59.80;;;;;;4993596;28;20047;-71
2022/12/21 03:21:23;;;;;;;58.03;25.45;;;5.20;59.70;;;;;;4993112;28;20057;-71
2022/12/21 03:24:07;;;;;;;61.22;24.20;;;5.20;59.70;;;;;;4993028;28;20038;-70
2022/12/21 03:26:38;;;;;;;67.25;25.80;;;5.20;59.80;;;;;;4992933;28;20045;-70
2022/12/21 03:29:06;;;;;;;58.60;24.88;;;5.20;59.80;;;;;;4992766;28;20077;-70
2022/12/21 03:31:38;;;;;;;60.83;24.35;;;5.20;59.80;;;;;;4992841;28;20047;-71
2022/12/21 03:34:16;;;;;;;57.58;24.77;;;5.20;59.70;;;;;;4992845;28;20066;-70
2022/12/21 03:36:47;;;;;;;57.55;24.73;;;5.20;59.70;;;;;;4989832;28;20125;-70
2022/12/21 03:39:20;;;;;;;62.50;25.05;;;5.20;59.70;;;;;;5012313;28;20037;-71
2022/12/21 03:41:53;;;;;;;57.90;24.88;;;5.20;59.80;;;;;;5012389;28;20030;-71
2022/12/21 03:44:26;;;;;;;52.57;24.07;;;5.20;59.70;;;;;;5012231;28;20540;-70
2022/12/21 03:47:00;;;;;;;59.83;25.05;;;5.20;59.70;;;;;;5012161;28;20429;-70
2022/12/21 03:49:32;;;;;;;58.90;25.20;;;5.20;59.70;;;;;;5012105;28;20596;-69
2022/12/21 03:52:17;;;;;;;55.53;23.08;;;5.20;59.80;;;;;;5044199;28;20048;-70
2022/12/21 03:55:07;;;;;;;58.45;24.00;;;5.20;60.50;;;;;;5035919;28;20033;-70
2022/12/21 03:57:37;;;;;;;66.63;25.55;;;5.20;59.80;;;;;;5035936;28;20397;-70
2022/12/21 04:00:05;;;;;;;65.80;27.23;;;5.20;59.70;;;;;;5035752;28;20033;-70
2022/12/21 04:02:58;;;;;;;60.10;23.65;;;5.20;59.70;;;;;;5053733;28;20033;-70
2022/12/21 04:05:34;;;;;;;55.75;23.77;;;5.20;59.80;;;;;;5052929;28;20059;-70
2022/12/21 04:08:04;;;;;;;56.47;24.08;;;5.20;59.80;;;;;;5053019;28;20469;-70
2022/12/21 04:10:36;;;;;;;54.95;24.00;;;5.20;59.80;;;;;;5035735;28;20029;-70
2022/12/21 04:13:08;;;;;;;54.28;23.67;;;5.20;59.80;;;;;;5035765;28;20396;-70
2022/12/21 04:21:11;;;;;;;57.78;23.33;;;5.30;59.90;;;;;;5053578;28;20079;-70
2022/12/21 04:29:05;;;;;;;59.92;24.35;;;5.30;59.90;;;;;;5053162;28;20055;-70
2022/12/21 04:31:31;;;;;;;57.67;23.35;;;5.30;59.80;;;;;;5053248;28;20107;-70
2022/12/21 04:33:57;;;;;;;61.75;24.85;;;5.30;59.70;;;;;;5053345;28;20100;-71
2022/12/21 04:39:07;;;;;;;60.85;26.02;;;5.30;59.70;;;;;;5033377;28;20052;-70
2022/12/21 04:41:33;;;;;;;64.53;25.63;;;5.30;59.80;;;;;;5033308;28;20029;-71
2022/12/21 04:43:59;;;;;;;57.58;22.92;;;5.30;59.80;;;;;;5033364;28;20036;-70
2022/12/21 04:46:26;;;;;;;53.03;21.83;;;5.30;59.80;;;;;;5015516;28;20037;-70
2022/12/21 04:48:51;;;;;;;54.90;22.25;;;5.30;59.80;;;;;;5032906;28;20041;-71
2022/12/21 04:51:23;;;;;;;54.95;23.38;;;5.30;59.80;;;;;;5033186;28;20454;-70
2022/12/21 04:53:49;;;;;;;50.28;22.63;;;5.30;59.70;;;;;;5033343;28;20397;-70
2022/12/21 04:56:16;;;;;;;54.90;23.08;;;5.30;59.70;;;;;;5033310;28;20424;-70
2022/12/21 04:58:44;;;;;;;53.75;23.90;;;5.30;59.70;;;;;;5033564;28;20030;-70
2022/12/21 05:01:12;;;;;;;54.55;22.58;;;5.30;59.70;;;;;;5032942;28;20478;-71
2022/12/21 05:03:39;;;;;;;55.15;22.98;;;5.30;59.70;;;;;;5018094;28;20056;-70
2022/12/21 05:06:05;;;;;;;67.80;25.38;;;5.30;59.70;;;;;;5044042;28;20094;-70
2022/12/21 05:08:34;;;;;;;54.65;23.90;;;5.30;59.70;;;;;;5057017;28;20056;-70
2022/12/21 05:11:12;;;;;;;58.97;22.55;;;5.30;59.70;;;;;;5039184;28;20043;-71
2022/12/21 05:13:39;;;;;;;56.47;24.13;;;5.30;59.60;;;;;;5056765;28;20496;-70
2022/12/21 05:16:08;;;;;;;48.13;21.58;;;5.30;59.60;;;;;;5056674;28;20094;-70
2022/12/21 05:18:34;;;;;;;52.13;23.05;;;5.30;59.60;;;;;;5038970;28;20515;-70
2022/12/21 05:21:00;;;;;;;54.08;21.80;;;5.40;59.60;;;;;;5056896;28;20116;-70
2022/12/21 05:23:26;;;;;;;53.60;22.63;;;5.30;59.50;;;;;;5056579;28;20120;-69
2022/12/21 05:25:54;;;;;;;61.97;24.05;;;5.40;59.50;;;;;;5038940;28;20131;-70
2022/12/21 05:28:20;;;;;;;58.45;23.85;;;5.40;59.50;;;;;;5056670;28;20052;-71
2022/12/21 05:30:46;;;;;;;56.55;21.55;;;5.30;59.50;;;;;;5038785;28;20037;-70
2022/12/21 05:33:12;;;;;;;52.53;22.00;;;5.30;59.50;;;;;;5056343;28;20059;-70
2022/12/21 05:35:42;;;;;;;58.42;24.08;;;5.40;59.60;;;;;;5035600;28;20031;-71
2022/12/21 05:38:08;;;;;;;57.55;23.13;;;5.40;59.60;;;;;;5036690;28;20381;-70
2022/12/21 05:40:34;;;;;;;53.53;22.52;;;5.40;59.60;;;;;;5036863;28;20086;-70
2022/12/21 05:43:01;;;;;;;52.25;21.90;;;5.40;59.60;;;;;;5036539;28;20034;-70
2022/12/21 05:45:30;;;;;;;62.67;25.10;;;5.40;59.60;;;;;;5036144;28;20033;-70
2022/12/21 05:47:58;;;;;;;53.67;24.23;;;5.40;59.60;;;;;;5036116;28;20507;-70
2022/12/21 05:50:24;;;;;;;54.78;22.95;;;5.40;59.40;;;;;;5036394;28;20033;-71
2022/12/21 05:52:50;;;;;;;54.15;23.48;;;5.40;59.40;;;;;;5018500;28;20505;-70
2022/12/21 05:55:15;;;;;;;53.45;22.85;;;5.40;59.30;;;;;;5036250;28;20033;-70
2022/12/21 05:57:42;;;;;;;54.25;22.52;;;5.40;59.20;;;;;;5018464;28;20109;-70
2022/12/21 06:00:09;;;;;;;46.92;21.88;;;5.40;59.20;;;;;;5036125;28;20104;-70
2022/12/21 06:02:34;;;;;;;51.33;21.05;;;5.40;59.20;;;;;;5035896;28;20050;-70
2022/12/21 06:05:03;;;;;;;52.58;22.13;;;5.40;59.30;;;;;;5035602;28;20054;-71
2022/12/21 06:07:30;;;;;;;51.13;22.92;;;5.40;59.30;;;;;;5035419;28;20075;-70
2022/12/21 06:09:55;;;;;;;57.70;24.85;;;5.40;59.30;;;;;;5038039;28;20039;-70
2022/12/21 06:12:24;;;;;;;54.08;22.85;;;5.40;59.20;;;;;;5037961;28;20462;-70
2022/12/21 06:14:52;;;;;;;54.38;23.75;;;5.40;59.10;;;;;;5037040;28;20029;-70
2022/12/21 06:17:23;;;;;;;45.83;20.42;;;5.30;59.10;;;;;;5037815;28;20041;-70
2022/12/21 06:19:51;;;;;;;47.92;19.83;;;5.30;59.10;;;;;;5055357;28;20029;-70
2022/12/21 06:22:17;;;;;;;46.55;20.27;;;5.40;59.20;;;;;;5038099;28;20052;-70
2022/12/21 06:24:43;;;;;;;52.17;22.40;;;5.30;59.20;;;;;;5055701;28;20443;-70
2022/12/21 06:27:08;;;;;;;54.47;24.25;;;5.30;59.10;;;;;;5055569;28;20091;-70
2022/12/21 06:29:37;;;;;;;47.67;22.05;;;5.30;59.10;;;;;;5055554;28;20419;-70
2022/12/21 06:32:03;;;;;;;50.60;22.35;;;5.30;59.10;;;;;;5028363;28;20041;-70
2022/12/21 06:34:31;;;;;;;60.42;24.60;;;5.30;59.10;;;;;;5034853;28;20045;-70
2022/12/21 06:36:57;;;;;;;51.28;21.17;;;5.30;59.10;;;;;;5047732;28;20481;-70
2022/12/21 06:39:26;;;;;;;56.63;22.85;;;5.30;59.20;;;;;;5055337;28;20083;-70
2022/12/21 06:41:55;;;;;;;51.38;21.60;;;5.30;59.20;;;;;;5042772;28;20099;-70
2022/12/21 06:44:23;;;;;;;54.38;23.73;;;5.30;59.20;;;;;;5017177;28;20340;-71
2022/12/21 06:46:49;;;;;;;46.42;21.08;;;5.30;59.20;;;;;;5054347;28;20102;-71
2022/12/21 06:49:20;;;;;;;57.22;24.30;;;5.30;59.20;;;;;;5037129;28;20046;-70
2022/12/21 06:51:48;;;;;;;47.83;21.40;;;5.30;59.20;;;;;;5054832;28;20061;-70
2022/12/21 06:54:14;;;;;;;45.58;22.02;;;5.30;59.10;;;;;;5055009;28;20369;-70
2022/12/21 06:56:42;;;;;;;49.17;21.30;;;5.40;59.20;;;;;;5052630;28;20036;-70
2022/12/21 06:59:08;;;;;;;51.08;22.42;;;5.40;59.20;;;;;;5054495;28;20120;-71
2022/12/21 07:01:35;;;;;;;48.40;22.63;;;5.40;59.20;;;;;;5040835;28;20129;-71
2022/12/21 07:04:01;;;;;;;50.95;22.00;;;5.40;59.10;;;;;;5034520;28;20465;-70
2022/12/21 07:06:31;;;;;;;57.45;24.13;;;5.40;59.20;;;;;;5021127;28;20119;-70
2022/12/21 07:08:57;;;;;;;50.60;21.88;;;5.40;59.20;;;;;;5034907;28;20038;-70
2022/12/21 07:11:26;;;;;;;51.63;22.05;;;5.40;59.10;;;;;;5019820;28;20033;-70
2022/12/21 07:13:52;;;;;;;50.88;21.70;;;5.40;59.10;;;;;;5023230;28;20041;-70
2022/12/21 07:16:19;;;;;;;54.42;23.25;;;5.40;59.10;;;;;;5021291;28;20495;-70
2022/12/21 07:18:46;;;;;;;55.55;22.92;;;5.40;59.20;;;;;;5044974;28;20044;-70
2022/12/21 07:21:14;;;;;;;55.13;22.35;;;5.50;59.20;;;;;;5051326;28;20500;-70
2022/12/21 07:23:43;;;;;;;50.47;22.20;;;5.50;59.30;;;;;;5042947;28;20499;-71
2022/12/21 07:26:13;;;;;;;52.75;21.98;;;5.50;59.20;;;;;;5045907;28;20090;-70
2022/12/21 07:28:43;;;;;;;55.67;24.20;;;5.50;59.30;;;;;;5029260;28;20060;-70
2022/12/21 07:31:12;;;;;;;65.68;24.63;;;5.50;59.20;;;;;;5044372;28;20028;-70
2022/12/21 07:33:40;;;;;;;58.20;23.70;;;5.60;59.10;;;;;;5054047;28;20047;-70
2022/12/21 07:36:08;;;;;;;56.13;25.20;;;5.50;59.00;;;;;;5031038;28;20115;-69
2022/12/21 07:38:35;;;;;;;51.40;23.95;;;5.50;58.90;;;;;;5016522;28;20037;-71
2022/12/21 07:41:06;;;;;;;57.00;23.30;;;5.50;58.90;;;;;;5025621;28;20084;-71
2022/12/21 07:43:33;;;;;;;51.63;22.67;;;5.50;59.00;;;;;;5053252;28;20040;-71
2022/12/21 07:46:02;;;;;;;61.97;25.15;;;5.60;59.00;;;;;;5032778;28;20102;-71
2022/12/21 07:48:29;;;;;;;59.05;24.88;;;5.60;59.00;;;;;;5031988;28;20112;-71
2022/12/21 07:50:55;;;;;;;58.08;24.67;;;5.60;58.90;;;;;;5054105;28;20083;-71
2022/12/21 07:53:21;;;;;;;69.38;28.73;;;5.60;58.90;;;;;;5054041;28;20060;-71
2022/12/21 07:55:49;;;;;;;56.58;25.58;;;5.60;58.90;;;;;;5053988;28;20040;-71
2022/12/21 07:58:15;;;;;;;61.72;26.65;;;5.70;58.90;;;;;;5035930;28;20041;-70
2022/12/21 08:00:43;;;;;;;59.13;24.00;;;5.70;58.90;;;;;;5049013;28;20033;-71
2022/12/21 08:03:09;;;;;;;61.83;25.33;;;5.70;58.90;;;;;;5042168;28;20462;-71
2022/12/21 08:05:38;;;;;;;60.72;26.67;;;5.80;59.00;;;;;;5033567;28;20044;-71
2022/12/21 08:08:04;;;;;;;65.55;25.95;;;5.80;59.00;;;;;;5051479;28;20056;-71
2022/12/21 08:10:36;;;;;;;64.28;25.85;;;5.80;58.90;;;;;;5016472;28;20030;-71
2022/12/21 08:13:04;;;;;;;63.33;26.27;;;5.90;58.90;;;;;;5033864;28;20384;-71
2022/12/21 08:15:30;;;;;;;64.05;25.92;;;5.90;58.80;;;;;;5033612;28;20034;-70
2022/12/21 08:17:55;;;;;;;62.10;25.98;;;6.00;58.80;;;;;;5033679;28;20029;-70
2022/12/21 08:20:21;;;;;;;59.13;24.38;;;6.00;58.70;;;;;;5033311;28;20464;-70
2022/12/21 08:22:50;;;;;;;57.03;24.38;;;6.00;58.70;;;;;;5033763;28;20104;-70
2022/12/21 08:25:18;;;;;;;63.65;25.77;;;6.10;58.80;;;;;;5033604;28;20038;-70
2022/12/21 08:27:44;;;;;;;72.05;29.17;;;6.10;58.70;;;;;;5034025;28;20076;-70
2022/12/21 08:30:10;;;;;;;70.85;29.65;;;6.20;58.60;;;;;;5043244;28;20061;-70
2022/12/21 08:32:41;;;;;;;81.93;29.35;;;6.20;58.60;;;;;;5053075;28;20464;-70
2022/12/21 08:35:12;;;;;;;77.78;30.30;;;6.20;58.40;;;;;;5035086;28;20050;-70
2022/12/21 08:37:38;;;;;;;89.97;33.90;;;6.30;58.40;;;;;;5035432;28;20041;-70
2022/12/21 08:40:07;;;;;;;90.88;35.30;;;6.30;58.30;;;;;;5037068;28;20091;-70
2022/12/21 08:42:33;;;;;;;85.07;33.60;;;6.40;58.10;;;;;;5033385;28;20389;-70
2022/12/21 08:44:59;;;;;;;93.88;36.55;;;6.40;58.10;;;;;;5033312;28;20060;-70
2022/12/21 08:47:25;;;;;;;84.05;31.73;;;6.40;58.10;;;;;;5033219;28;20037;-71
2022/12/21 08:49:51;;;;;;;80.20;32.13;;;6.40;58.00;;;;;;5033375;28;20034;-70
2022/12/21 08:52:16;;;;;;;85.78;32.97;;;6.50;58.20;;;;;;5033621;28;20056;-71
2022/12/21 08:54:42;;;;;;;89.80;34.60;;;6.50;58.00;;;;;;5034436;28;20401;-70
2022/12/21 08:57:08;;;;;;;83.88;33.50;;;6.50;57.90;;;;;;5041876;28;20026;-70
2022/12/21 08:59:34;;;;;;;82.05;32.95;;;6.60;57.90;;;;;;5015730;28;20064;-71
2022/12/21 09:02:00;;;;;;;86.38;33.00;;;6.60;57.90;;;;;;5033159;28;20033;-71
2022/12/21 09:04:28;;;;;;;89.32;34.85;;;6.60;57.70;;;;;;5015238;28;20470;-70
2022/12/21 09:06:54;;;;;;;88.25;33.70;;;6.60;57.60;;;;;;5043490;28;20068;-71
2022/12/21 09:09:20;;;;;;;66.50;28.17;;;6.70;57.70;;;;;;5042039;28;20135;-71
2022/12/21 09:11:46;;;;;;;79.75;33.78;;;6.70;57.70;;;;;;5033507;28;20064;-71
2022/12/21 09:14:12;;;;;;;85.70;32.55;;;6.70;57.80;;;;;;5032789;28;20048;-70
2022/12/21 09:16:40;;;;;;;88.30;33.80;;;6.80;58.40;;;;;;5015337;28;20378;-70
2022/12/21 09:19:11;;;;;;;87.28;32.30;;;6.80;57.70;;;;;;5033165;28;20116;-70
2022/12/21 09:21:37;;;;;;;91.57;34.75;;;6.90;57.80;;;;;;5036237;28;20053;-70
2022/12/21 09:24:04;;;;;;;87.18;34.00;;;6.90;57.80;;;;;;5051361;28;20037;-70
2022/12/21 09:26:29;;;;;;;88.60;34.83;;;7.00;57.70;;;;;;5048411;28;20038;-70
2022/12/21 09:28:55;;;;;;;82.93;32.10;;;7.00;57.50;;;;;;5047708;28;20103;-70
2022/12/21 09:31:22;;;;;;;88.55;33.58;;;7.00;57.40;;;;;;5045004;28;20504;-70
2022/12/21 09:33:50;;;;;;;81.63;34.13;;;7.10;57.30;;;;;;5046587;28;20045;-69
2022/12/21 09:36:16;;;;;;;85.07;35.00;;;7.10;57.40;;;;;;5021700;28;20041;-69
2022/12/21 09:38:45;;;;;;;93.85;34.65;;;7.20;57.50;;;;;;5047765;28;20523;-69
2022/12/21 09:41:40;;;;;;;81.72;32.72;;;7.20;57.30;;;;;;5041175;28;20026;-69
2022/12/21 09:44:14;;;;;;;;;;;7.20;57.30;;;;;;4960973;28;20051;-69
2022/12/21 09:46:42;;;;;;;82.93;32.85;;;7.30;57.60;;;;;;5032489;28;19908;-70
2022/12/21 09:49:31;;;;;;;87.07;34.20;;;7.40;57.40;;;;;;5033046;28;20069;-69
2022/12/21 09:52:01;;;;;;;84.43;33.65;;;7.40;57.30;;;;;;5045854;28;20084;-69
2022/12/21 09:54:53;;;;;;;96.13;36.45;;;7.40;57.20;;;;;;5034656;28;20495;-69
2022/12/21 09:57:19;;;;;;;86.28;36.08;;;7.50;57.10;;;;;;5028102;28;20120;-69
2022/12/21 09:59:45;;;;;;;89.05;35.45;;;7.50;57.00;;;;;;5043747;28;20433;-70
2022/12/21 10:02:40;;;;;;;100.20;36.10;;;7.50;56.90;;;;;;5038507;28;20119;-70
2022/12/21 10:05:42;;;;;;;99.32;38.10;;;7.50;56.70;;;;;;5049278;28;20055;-70
2022/12/21 10:08:39;;;;;;;94.78;36.88;;;7.50;56.80;;;;;;5001621;28;20497;-70
2022/12/21 10:11:23;;;;;;;97.45;37.35;;;7.50;56.70;;;;;;5035732;28;20604;-69
2022/12/21 10:13:53;;;;;;;95.00;36.00;;;7.60;56.80;;;;;;5036002;28;20362;-69
2022/12/21 10:16:41;;;;;;;102.80;39.22;;;7.60;56.80;;;;;;5018126;28;20040;-69
2022/12/21 10:19:16;;;;;;;96.78;38.60;;;7.60;56.70;;;;;;5017152;28;20140;-69
2022/12/21 10:22:04;;;;;;;92.50;37.58;;;7.70;56.90;;;;;;5035793;28;20033;-69
2022/12/21 10:24:52;;;;;;;111.38;40.20;;;7.70;56.90;;;;;;5035716;28;20378;-69
2022/12/21 10:27:27;;;;;;;107.43;41.15;;;7.70;56.80;;;;;;5017862;28;20088;-69
2022/12/21 10:29:58;;;;;;;107.43;40.97;;;7.80;56.70;;;;;;5017901;28;20064;-69
2022/12/21 10:32:31;;;;;;;110.13;40.50;;;7.80;56.40;;;;;;5035472;28;20040;-70
2022/12/21 10:35:16;;;;;;;102.88;40.13;;;7.80;56.50;;;;;;5035563;28;20065;-69
2022/12/21 10:37:46;;;;;;;98.22;37.10;;;7.90;56.50;;;;;;5051980;28;20040;-69
2022/12/21 10:40:12;;;;;;;98.40;37.38;;;7.90;56.70;;;;;;5037276;28;20044;-69
2022/12/21 10:42:41;;;;;;;98.45;37.53;;;7.90;56.80;;;;;;5055300;28;20029;-70
2022/12/21 10:45:13;;;;;;;99.78;39.33;;;8.00;56.80;;;;;;5055206;28;20062;-69
2022/12/21 10:47:40;;;;;;;108.50;42.17;;;8.00;56.70;;;;;;5054938;28;20551;-69
2022/12/21 10:50:20;;;;;;;100.18;39.33;;;8.10;56.60;;;;;;5055126;28;20029;-69
2022/12/21 10:52:48;;;;;;;101.03;37.97;;;8.20;56.40;;;;;;5037175;28;20440;-70
2022/12/21 10:55:34;;;;;;;101.97;40.40;;;8.20;56.30;;;;;;5054588;28;20056;-70
2022/12/21 10:58:05;;;;;;;107.28;40.28;;;8.20;56.20;;;;;;5036732;28;20047;-69
2022/12/21 11:00:35;;;;;;;105.15;40.75;;;8.30;56.30;;;;;;5054141;28;20068;-69
2022/12/21 11:03:03;;;;;;;109.57;41.33;;;8.40;56.30;;;;;;5054936;28;20123;-70
2022/12/21 11:05:38;;;;;;;110.70;41.38;;;8.40;56.00;;;;;;5036744;28;20049;-69
2022/12/21 11:08:13;;;;;;;102.15;39.22;;;8.40;55.70;;;;;;5033352;28;20576;-69
2022/12/21 11:10:45;;;;;;;91.35;36.95;;;8.40;55.80;;;;;;5017037;28;20165;-69
2022/12/21 11:13:12;;;;;;;113.85;40.38;;;8.40;55.90;;;;;;5034843;28;20048;-70
2022/12/21 11:15:50;;;;;;;109.70;41.90;;;8.40;55.80;;;;;;5034455;28;20025;-69
2022/12/21 11:18:45;;;;;;;120.93;45.75;;;8.50;55.70;;;;;;5034669;28;20063;-69
2022/12/21 11:21:40;;;;;;;111.65;42.30;;;8.50;55.40;;;;;;5034666;28;20037;-69
2022/12/21 11:24:17;;;;;;;114.82;44.25;;;8.50;55.60;;;;;;5016763;28;20033;-69
2022/12/21 11:26:46;;;;;;;109.78;43.55;;;8.50;55.40;;;;;;5034476;28;20064;-69
2022/12/21 11:29:19;;;;;;;105.65;38.75;;;8.50;55.30;;;;;;5033937;28;20486;-69
2022/12/21 11:31:45;;;;;;;111.68;41.58;;;8.40;55.50;;;;;;5035594;28;20366;-69
2022/12/21 11:34:29;;;;;;;112.88;43.13;;;8.40;55.50;;;;;;5034154;28;20040;-69
2022/12/21 11:36:58;;;;;;;109.65;41.78;;;8.40;55.60;;;;;;5033905;28;20038;-70
2022/12/21 11:39:24;;;;;;;112.75;43.95;;;8.50;55.60;;;;;;5033987;28;20413;-69
2022/12/21 11:41:51;;;;;;;117.60;44.92;;;8.40;55.50;;;;;;5034094;28;20033;-69
2022/12/21 11:44:29;;;;;;;130.77;45.38;;;8.40;55.50;;;;;;5016366;28;20104;-70
2022/12/21 11:47:09;;;;;;;104.05;41.80;;;8.40;55.50;;;;;;5016279;28;20120;-69
2022/12/21 11:49:53;;;;;;;111.78;42.13;;;8.40;55.50;;;;;;5033832;28;20149;-69
2022/12/21 11:53:22;;;;;;;110.10;41.80;;;8.40;55.60;;;;;;5033956;28;20127;-70
2022/12/21 11:56:00;;;;;;;104.22;41.28;;;8.40;55.60;;;;;;4934369;29;20040;-71
2022/12/21 11:58:32;;;;;;;99.50;38.90;;;8.40;55.50;;;;;;4943539;29;20054;-69
2022/12/21 12:01:29;;;;;;;113.13;41.28;;;8.40;55.70;;;;;;5017274;28;20079;-69
2022/12/21 12:04:14;;;;;;;114.82;44.15;;;8.50;55.80;;;;;;5033393;28;20501;-69
2022/12/21 12:07:04;;;;;;;112.35;41.97;;;8.50;55.80;;;;;;5033375;28;20473;-68
2022/12/21 12:09:59;;;;;;;98.65;40.50;;;8.50;55.80;;;;;;5015882;28;20041;-69
2022/12/21 12:12:54;;;;;;;102.80;39.53;;;8.60;55.70;;;;;;5032613;28;20043;-69
2022/12/21 12:15:38;;;;;;;104.30;40.67;;;8.60;55.70;;;;;;5027179;28;20495;-69
2022/12/21 12:18:27;;;;;;;94.22;39.40;;;8.70;55.70;;;;;;5053492;28;20033;-69
2022/12/21 12:21:22;;;;;;;102.63;40.70;;;8.80;55.50;;;;;;5035558;28;20442;-69
2022/12/21 12:24:16;;;;;;;100.32;40.50;;;8.80;55.30;;;;;;5034808;28;20495;-69
2022/12/21 12:26:45;;;;;;;107.65;40.78;;;8.80;55.20;;;;;;5037046;28;20044;-69
2022/12/21 12:29:37;;;;;;;104.57;40.72;;;8.80;55.30;;;;;;5037724;28;20040;-69
2022/12/21 12:32:12;;;;;;;101.55;41.00;;;8.70;55.10;;;;;;5047204;28;20469;-69
2022/12/21 12:35:03;;;;;;;103.10;39.38;;;8.80;55.20;;;;;;5053374;28;20086;-69
2022/12/21 12:38:19;;;;;;;99.95;40.08;;;8.70;55.40;;;;;;5035391;28;20037;-69
2022/12/21 12:41:14;;;;;;;97.07;40.05;;;8.70;55.80;;;;;;5052128;28;20040;-69
2022/12/21 12:43:49;;;;;;;82.53;36.15;;;8.80;55.90;;;;;;5015209;28;20032;-69
2022/12/21 12:46:23;;;;;;;89.43;36.47;;;8.80;56.10;;;;;;5035313;28;20033;-69
2022/12/21 12:49:02;;;;;;;92.78;38.08;;;8.80;56.10;;;;;;5045551;28;20073;-69
2022/12/21 12:52:01;;;;;;;85.68;35.30;;;8.80;56.10;;;;;;5015484;28;20385;-69
2022/12/21 12:54:36;;;;;;;89.28;37.20;;;8.80;56.10;;;;;;5043004;28;20021;-68
2022/12/21 12:57:02;;;;;;;84.93;34.92;;;8.90;56.10;;;;;;5052777;28;20060;-69
2022/12/21 12:59:55;;;;;;;83.70;36.00;;;8.90;56.00;;;;;;5052821;28;20045;-69
2022/12/21 13:02:28;;;;;;;93.07;38.35;;;8.90;55.90;;;;;;5029702;28;20037;-69
2022/12/21 13:05:25;;;;;;;95.45;39.50;;;8.90;55.90;;;;;;5032382;28;20188;-69
2022/12/21 13:08:28;;;;;;;90.93;36.75;;;8.80;55.60;;;;;;5032755;28;20048;-69
2022/12/21 13:11:30;;;;;;;85.70;35.50;;;8.80;55.80;;;;;;5032708;28;20064;-69
2022/12/21 13:14:19;;;;;;;90.22;35.15;;;8.80;56.00;;;;;;4952115;28;20035;-69
2022/12/21 13:16:58;;;;;;;92.88;38.38;;;8.70;56.20;;;;;;4952280;28;20055;-69
2022/12/21 13:19:28;;;;;;;97.07;42.55;;;8.70;56.40;;;;;;4952114;29;20116;-69
2022/12/21 13:21:58;;;;;;;103.07;42.53;;;8.80;56.40;;;;;;4952297;28;20043;-69